HK7152 EDNV-LSZH
Flight info
| Callsign | HK7152 |
|---|---|
| Flight time | 0h 53m |
| Altitude | 12000 |
| Route | ATLOL L856 XATER/N0233F200 |
| Aircraft | B36T/L-BDFGLORY/S |
Departure
| Time | 2026-05-03 23:09 |
|---|---|
| Airport | Vogtareuth Airfield (EDNV) |
Arrival
| Time | 2026-05-04 00:03 |
|---|---|
| Airport | Zürich Airport (LSZH) |
| Time | Latitude | Longitude | Altitude | Speed | Heading |
|---|---|---|---|---|---|
| 2026-05-03 23:03 | 47.94636 | 12.20411 | 1537 ft | 0 kts | 17° |
| 2026-05-03 23:06 | 47.94637 | 12.20412 | 1537 ft | 2 kts | 17° |
| 2026-05-03 23:07 | 47.94655 | 12.20463 | 1537 ft | 8 kts | 58° |
| 2026-05-03 23:07 | 47.94642 | 12.20427 | 1535 ft | 0 kts | 79° |
| 2026-05-03 23:07 | 47.94645 | 12.20439 | 1534 ft | 2 kts | 64° |
| 2026-05-03 23:07 | 47.94654 | 12.20545 | 1535 ft | 14 kts | 61° |
| 2026-05-03 23:08 | 47.94693 | 12.20642 | 1531 ft | 16 kts | 57° |
| 2026-05-03 23:08 | 47.94760 | 12.20794 | 1525 ft | 11 kts | 38° |
| 2026-05-03 23:08 | 47.94753 | 12.20796 | 1525 ft | 8 kts | 239° |
| 2026-05-03 23:08 | 47.94580 | 12.20381 | 1543 ft | 93 kts | 239° |
| 2026-05-03 23:09 | 47.94141 | 12.19486 | 1998 ft | 112 kts | 227° |
| 2026-05-03 23:09 | 47.93740 | 12.18455 | 2661 ft | 122 kts | 253° |
| 2026-05-03 23:09 | 47.93560 | 12.17099 | 3117 ft | 146 kts | 262° |
| 2026-05-03 23:09 | 47.93436 | 12.15552 | 3462 ft | 153 kts | 263° |
| 2026-05-03 23:10 | 47.93308 | 12.13956 | 3796 ft | 157 kts | 263° |
| 2026-05-03 23:10 | 47.93153 | 12.12357 | 4106 ft | 157 kts | 262° |
| 2026-05-03 23:10 | 47.92980 | 12.10751 | 4400 ft | 157 kts | 262° |
| 2026-05-03 23:10 | 47.92816 | 12.09139 | 4692 ft | 157 kts | 262° |
| 2026-05-03 23:11 | 47.92665 | 12.07528 | 4997 ft | 157 kts | 263° |
| 2026-05-03 23:11 | 47.92509 | 12.05914 | 5307 ft | 158 kts | 261° |
| 2026-05-03 23:11 | 47.92340 | 12.04290 | 5606 ft | 158 kts | 262° |
| 2026-05-03 23:11 | 47.92181 | 12.02665 | 5896 ft | 158 kts | 262° |
| 2026-05-03 23:12 | 47.92025 | 12.01058 | 6249 ft | 155 kts | 262° |
| 2026-05-03 23:12 | 47.91871 | 11.99477 | 6623 ft | 153 kts | 262° |
| 2026-05-03 23:12 | 47.91719 | 11.97913 | 6999 ft | 152 kts | 262° |
| 2026-05-03 23:12 | 47.91564 | 11.96338 | 7339 ft | 155 kts | 262° |
| 2026-05-03 23:13 | 47.91411 | 11.94762 | 7666 ft | 156 kts | 262° |
| 2026-05-03 23:13 | 47.91253 | 11.93152 | 8004 ft | 158 kts | 262° |
| 2026-05-03 23:13 | 47.91098 | 11.91527 | 8340 ft | 158 kts | 262° |
| 2026-05-03 23:13 | 47.90937 | 11.89898 | 8676 ft | 159 kts | 262° |
| 2026-05-03 23:14 | 47.90773 | 11.88261 | 9015 ft | 160 kts | 262° |
| 2026-05-03 23:14 | 47.90608 | 11.86621 | 9341 ft | 160 kts | 262° |
| 2026-05-03 23:14 | 47.90444 | 11.84977 | 9674 ft | 161 kts | 262° |
| 2026-05-03 23:14 | 47.90279 | 11.83330 | 10007 ft | 161 kts | 262° |
| 2026-05-03 23:15 | 47.90114 | 11.81676 | 10323 ft | 161 kts | 262° |
| 2026-05-03 23:15 | 47.89953 | 11.80046 | 10639 ft | 161 kts | 262° |
| 2026-05-03 23:15 | 47.89789 | 11.78394 | 10962 ft | 161 kts | 262° |
| 2026-05-03 23:15 | 47.89626 | 11.76744 | 11274 ft | 161 kts | 262° |
| 2026-05-03 23:16 | 47.89463 | 11.75092 | 11597 ft | 161 kts | 262° |
| 2026-05-03 23:16 | 47.89300 | 11.73441 | 11920 ft | 162 kts | 262° |
| 2026-05-03 23:16 | 47.89128 | 11.71712 | 11971 ft | 175 kts | 262° |
| 2026-05-03 23:16 | 47.88950 | 11.69883 | 11985 ft | 181 kts | 262° |
| 2026-05-03 23:17 | 47.88765 | 11.68007 | 11997 ft | 184 kts | 262° |
| 2026-05-03 23:17 | 47.88573 | 11.66106 | 12002 ft | 186 kts | 262° |
| 2026-05-03 23:17 | 47.88380 | 11.64193 | 12002 ft | 187 kts | 262° |
| 2026-05-03 23:17 | 47.88187 | 11.62275 | 12001 ft | 187 kts | 262° |
| 2026-05-03 23:18 | 47.87992 | 11.60356 | 11997 ft | 187 kts | 262° |
| 2026-05-03 23:18 | 47.87799 | 11.58436 | 11997 ft | 187 kts | 262° |
| 2026-05-03 23:18 | 47.87605 | 11.56514 | 11998 ft | 187 kts | 262° |
| 2026-05-03 23:18 | 47.87411 | 11.54597 | 11998 ft | 187 kts | 262° |
| 2026-05-03 23:19 | 47.87216 | 11.52677 | 12000 ft | 187 kts | 262° |
| 2026-05-03 23:19 | 47.87024 | 11.50784 | 12002 ft | 187 kts | 262° |
| 2026-05-03 23:19 | 47.86829 | 11.48865 | 12000 ft | 187 kts | 262° |
| 2026-05-03 23:19 | 47.86633 | 11.46944 | 11999 ft | 187 kts | 262° |
| 2026-05-03 23:20 | 47.86438 | 11.45021 | 11998 ft | 187 kts | 262° |
| 2026-05-03 23:20 | 47.86245 | 11.43102 | 12001 ft | 187 kts | 262° |
| 2026-05-03 23:20 | 47.86051 | 11.41180 | 12004 ft | 188 kts | 262° |
| 2026-05-03 23:20 | 47.85856 | 11.39257 | 12001 ft | 188 kts | 262° |
| 2026-05-03 23:21 | 47.85660 | 11.37336 | 12002 ft | 188 kts | 262° |
| 2026-05-03 23:21 | 47.85464 | 11.35410 | 12004 ft | 188 kts | 262° |
| 2026-05-03 23:21 | 47.85268 | 11.33509 | 12003 ft | 188 kts | 262° |
| 2026-05-03 23:21 | 47.85067 | 11.31561 | 11999 ft | 188 kts | 262° |
| 2026-05-03 23:22 | 47.84671 | 11.27745 | 11995 ft | 187 kts | 262° |
| 2026-05-03 23:22 | 47.84473 | 11.25827 | 11997 ft | 187 kts | 262° |
| 2026-05-03 23:22 | 47.84274 | 11.23911 | 11998 ft | 187 kts | 262° |
| 2026-05-03 23:23 | 47.84075 | 11.21994 | 11997 ft | 187 kts | 262° |
| 2026-05-03 23:23 | 47.83875 | 11.20078 | 11998 ft | 187 kts | 262° |
| 2026-05-03 23:23 | 47.83675 | 11.18167 | 11997 ft | 187 kts | 262° |
| 2026-05-03 23:23 | 47.83475 | 11.16253 | 12004 ft | 187 kts | 262° |
| 2026-05-03 23:24 | 47.83275 | 11.14335 | 12007 ft | 188 kts | 262° |
| 2026-05-03 23:24 | 47.83073 | 11.12415 | 12007 ft | 188 kts | 262° |
| 2026-05-03 23:24 | 47.82870 | 11.10489 | 12008 ft | 188 kts | 261° |
| 2026-05-03 23:24 | 47.82668 | 11.08593 | 12004 ft | 188 kts | 261° |
| 2026-05-03 23:25 | 47.82429 | 11.06681 | 12000 ft | 188 kts | 259° |
| 2026-05-03 23:25 | 47.82170 | 11.04779 | 11990 ft | 188 kts | 259° |
| 2026-05-03 23:25 | 47.81907 | 11.02880 | 11994 ft | 187 kts | 259° |
| 2026-05-03 23:25 | 47.81644 | 11.00982 | 11997 ft | 187 kts | 259° |
| 2026-05-03 23:26 | 47.81383 | 10.99080 | 11996 ft | 187 kts | 259° |
| 2026-05-03 23:26 | 47.81124 | 10.97179 | 12003 ft | 188 kts | 259° |
| 2026-05-03 23:26 | 47.80866 | 10.95272 | 12015 ft | 189 kts | 259° |
| 2026-05-03 23:26 | 47.80607 | 10.93357 | 12019 ft | 189 kts | 259° |
| 2026-05-03 23:27 | 47.80348 | 10.91437 | 12005 ft | 189 kts | 259° |
| 2026-05-03 23:27 | 47.80090 | 10.89520 | 11999 ft | 188 kts | 259° |
| 2026-05-03 23:27 | 47.79832 | 10.87612 | 11993 ft | 187 kts | 259° |
| 2026-05-03 23:27 | 47.79575 | 10.85709 | 11995 ft | 187 kts | 259° |
| 2026-05-03 23:28 | 47.79321 | 10.83828 | 11989 ft | 187 kts | 259° |
| 2026-05-03 23:28 | 47.79064 | 10.81929 | 11996 ft | 187 kts | 259° |
| 2026-05-03 23:28 | 47.78806 | 10.80028 | 11996 ft | 187 kts | 259° |
| 2026-05-03 23:28 | 47.78547 | 10.78129 | 11995 ft | 187 kts | 259° |
| 2026-05-03 23:29 | 47.78290 | 10.76230 | 11999 ft | 187 kts | 259° |
| 2026-05-03 23:29 | 47.78031 | 10.74329 | 11999 ft | 188 kts | 259° |
| 2026-05-03 23:29 | 47.77772 | 10.72421 | 11999 ft | 188 kts | 259° |
| 2026-05-03 23:29 | 47.77513 | 10.70520 | 12000 ft | 188 kts | 259° |
| 2026-05-03 23:30 | 47.77252 | 10.68614 | 12003 ft | 188 kts | 259° |
| 2026-05-03 23:30 | 47.76990 | 10.66706 | 11965 ft | 189 kts | 259° |
| 2026-05-03 23:30 | 47.76724 | 10.64767 | 11846 ft | 193 kts | 259° |
| 2026-05-03 23:30 | 47.76453 | 10.62800 | 11719 ft | 194 kts | 259° |
| 2026-05-03 23:31 | 47.76182 | 10.60832 | 11596 ft | 195 kts | 259° |
| 2026-05-03 23:31 | 47.75910 | 10.58863 | 11468 ft | 195 kts | 259° |
| 2026-05-03 23:31 | 47.75638 | 10.56894 | 11340 ft | 194 kts | 259° |
| 2026-05-03 23:31 | 47.75367 | 10.54925 | 11227 ft | 194 kts | 259° |
| 2026-05-03 23:32 | 47.75092 | 10.52960 | 11111 ft | 195 kts | 258° |
| 2026-05-03 23:32 | 47.74814 | 10.50990 | 11003 ft | 195 kts | 259° |
| 2026-05-03 23:32 | 47.74541 | 10.49017 | 10890 ft | 195 kts | 259° |
| 2026-05-03 23:32 | 47.74270 | 10.47049 | 10760 ft | 194 kts | 259° |
| 2026-05-03 23:33 | 47.74001 | 10.45111 | 10627 ft | 193 kts | 259° |
| 2026-05-03 23:33 | 47.73730 | 10.43159 | 10494 ft | 193 kts | 259° |
| 2026-05-03 23:33 | 47.73458 | 10.41206 | 10362 ft | 193 kts | 259° |
| 2026-05-03 23:33 | 47.73186 | 10.39256 | 10232 ft | 192 kts | 259° |
| 2026-05-03 23:34 | 47.72914 | 10.37308 | 10108 ft | 192 kts | 259° |
| 2026-05-03 23:34 | 47.72643 | 10.35363 | 9975 ft | 192 kts | 259° |
| 2026-05-03 23:34 | 47.72371 | 10.33425 | 9850 ft | 192 kts | 259° |
| 2026-05-03 23:34 | 47.72100 | 10.31491 | 9720 ft | 191 kts | 259° |
| 2026-05-03 23:35 | 47.71829 | 10.29558 | 9593 ft | 191 kts | 259° |
| 2026-05-03 23:35 | 47.71557 | 10.27628 | 9465 ft | 191 kts | 259° |
| 2026-05-03 23:35 | 47.71284 | 10.25698 | 9339 ft | 191 kts | 258° |
| 2026-05-03 23:35 | 47.71012 | 10.23768 | 9211 ft | 191 kts | 259° |
| 2026-05-03 23:36 | 47.70740 | 10.21843 | 9084 ft | 191 kts | 258° |
| 2026-05-03 23:36 | 47.70471 | 10.19938 | 8955 ft | 190 kts | 259° |
| 2026-05-03 23:36 | 47.70199 | 10.18018 | 8832 ft | 190 kts | 259° |
| 2026-05-03 23:36 | 47.69926 | 10.16093 | 8707 ft | 190 kts | 259° |
| 2026-05-03 23:37 | 47.69655 | 10.14171 | 8579 ft | 189 kts | 258° |
| 2026-05-03 23:37 | 47.69382 | 10.12259 | 8451 ft | 189 kts | 258° |
| 2026-05-03 23:37 | 47.69112 | 10.10368 | 8326 ft | 189 kts | 259° |
| 2026-05-03 23:37 | 47.68840 | 10.08455 | 8200 ft | 189 kts | 258° |
| 2026-05-03 23:38 | 47.68566 | 10.06546 | 8078 ft | 188 kts | 258° |
| 2026-05-03 23:38 | 47.68297 | 10.04655 | 8023 ft | 186 kts | 258° |
| 2026-05-03 23:38 | 47.68032 | 10.02793 | 8011 ft | 183 kts | 259° |
| 2026-05-03 23:38 | 47.67769 | 10.00947 | 8004 ft | 182 kts | 258° |
| 2026-05-03 23:39 | 47.67508 | 9.99109 | 8004 ft | 181 kts | 258° |
| 2026-05-03 23:39 | 47.67247 | 9.97279 | 8002 ft | 181 kts | 258° |
| 2026-05-03 23:39 | 47.66986 | 9.95450 | 8004 ft | 181 kts | 258° |
| 2026-05-03 23:39 | 47.66726 | 9.93621 | 8002 ft | 181 kts | 259° |
| 2026-05-03 23:40 | 47.66463 | 9.91787 | 8006 ft | 181 kts | 258° |
| 2026-05-03 23:40 | 47.66203 | 9.89979 | 8002 ft | 181 kts | 258° |
| 2026-05-03 23:40 | 47.65939 | 9.88146 | 8002 ft | 181 kts | 258° |
| 2026-05-03 23:40 | 47.65674 | 9.86317 | 8002 ft | 181 kts | 258° |
| 2026-05-03 23:41 | 47.65410 | 9.84491 | 7998 ft | 181 kts | 258° |
| 2026-05-03 23:41 | 47.65145 | 9.82666 | 7999 ft | 181 kts | 258° |
| 2026-05-03 23:41 | 47.64970 | 9.81461 | 7998 ft | 181 kts | 258° |
| 2026-05-03 23:41 | 47.64706 | 9.79632 | 8006 ft | 181 kts | 258° |
| 2026-05-03 23:42 | 47.64440 | 9.77801 | 8016 ft | 182 kts | 258° |
| 2026-05-03 23:42 | 47.64172 | 9.75961 | 8011 ft | 182 kts | 258° |
| 2026-05-03 23:42 | 47.63904 | 9.74124 | 8007 ft | 182 kts | 258° |
| 2026-05-03 23:42 | 47.63635 | 9.72285 | 8005 ft | 182 kts | 258° |
| 2026-05-03 23:43 | 47.63366 | 9.70452 | 7998 ft | 181 kts | 258° |
| 2026-05-03 23:43 | 47.62943 | 9.68695 | 7995 ft | 181 kts | 246° |
| 2026-05-03 23:43 | 47.62368 | 9.67026 | 7996 ft | 182 kts | 243° |
| 2026-05-03 23:43 | 47.61758 | 9.65385 | 7996 ft | 182 kts | 242° |
| 2026-05-03 23:44 | 47.61133 | 9.63754 | 7997 ft | 182 kts | 242° |
| 2026-05-03 23:44 | 47.60501 | 9.62127 | 7996 ft | 182 kts | 242° |
| 2026-05-03 23:44 | 47.59867 | 9.60504 | 8000 ft | 182 kts | 241° |
| 2026-05-03 23:44 | 47.59241 | 9.58903 | 7998 ft | 182 kts | 241° |
| 2026-05-03 23:45 | 47.58606 | 9.57283 | 7998 ft | 182 kts | 241° |
| 2026-05-03 23:45 | 47.57972 | 9.55665 | 7994 ft | 182 kts | 241° |
| 2026-05-03 23:45 | 47.57330 | 9.54024 | 7867 ft | 185 kts | 241° |
| 2026-05-03 23:45 | 47.56680 | 9.52361 | 7747 ft | 187 kts | 241° |
| 2026-05-03 23:46 | 47.56031 | 9.50687 | 7635 ft | 187 kts | 244° |
| 2026-05-03 23:46 | 47.55513 | 9.48918 | 7512 ft | 187 kts | 251° |
| 2026-05-03 23:46 | 47.55107 | 9.47092 | 7386 ft | 187 kts | 253° |
| 2026-05-03 23:46 | 47.54737 | 9.45251 | 7257 ft | 186 kts | 255° |
| 2026-05-03 23:47 | 47.54384 | 9.43405 | 7128 ft | 186 kts | 255° |
| 2026-05-03 23:47 | 47.54035 | 9.41560 | 6997 ft | 186 kts | 255° |
| 2026-05-03 23:47 | 47.53658 | 9.39728 | 6893 ft | 186 kts | 253° |
| 2026-05-03 23:47 | 47.53213 | 9.37922 | 6779 ft | 187 kts | 249° |
| 2026-05-03 23:48 | 47.52718 | 9.36146 | 6661 ft | 186 kts | 248° |
| 2026-05-03 23:48 | 47.52213 | 9.34402 | 6543 ft | 186 kts | 248° |
| 2026-05-03 23:48 | 47.51695 | 9.32645 | 6441 ft | 186 kts | 247° |
| 2026-05-03 23:48 | 47.51174 | 9.30892 | 6320 ft | 186 kts | 247° |
| 2026-05-03 23:49 | 47.50651 | 9.29144 | 6214 ft | 186 kts | 247° |
| 2026-05-03 23:49 | 47.50152 | 9.27384 | 6083 ft | 185 kts | 251° |
| 2026-05-03 23:49 | 47.49769 | 9.25632 | 5976 ft | 174 kts | 255° |
| 2026-05-03 23:49 | 47.49453 | 9.23914 | 5883 ft | 172 kts | 256° |
| 2026-05-03 23:50 | 47.49162 | 9.22214 | 5774 ft | 170 kts | 257° |
| 2026-05-03 23:50 | 47.48873 | 9.20545 | 5675 ft | 169 kts | 255° |
| 2026-05-03 23:50 | 47.48577 | 9.18868 | 5572 ft | 168 kts | 257° |
| 2026-05-03 23:50 | 47.48311 | 9.17186 | 5441 ft | 168 kts | 257° |
| 2026-05-03 23:51 | 47.48052 | 9.15508 | 5325 ft | 167 kts | 257° |
| 2026-05-03 23:51 | 47.47790 | 9.13830 | 5205 ft | 167 kts | 257° |
| 2026-05-03 23:51 | 47.47524 | 9.12154 | 5094 ft | 167 kts | 257° |
| 2026-05-03 23:51 | 47.47261 | 9.10498 | 5037 ft | 164 kts | 257° |
| 2026-05-03 23:52 | 47.47000 | 9.08863 | 5021 ft | 163 kts | 257° |
| 2026-05-03 23:52 | 47.46739 | 9.07225 | 5019 ft | 163 kts | 257° |
| 2026-05-03 23:52 | 47.46475 | 9.05591 | 5033 ft | 163 kts | 257° |
| 2026-05-03 23:52 | 47.46222 | 9.03957 | 5034 ft | 163 kts | 257° |
| 2026-05-03 23:53 | 47.45966 | 9.02323 | 5025 ft | 163 kts | 257° |
| 2026-05-03 23:53 | 47.45704 | 9.00693 | 5000 ft | 162 kts | 257° |
| 2026-05-03 23:53 | 47.45446 | 8.99069 | 5019 ft | 163 kts | 257° |
| 2026-05-03 23:53 | 47.45182 | 8.97443 | 5008 ft | 162 kts | 257° |
| 2026-05-03 23:54 | 47.44914 | 8.95824 | 4994 ft | 162 kts | 257° |
| 2026-05-03 23:54 | 47.44653 | 8.94218 | 4983 ft | 160 kts | 257° |
| 2026-05-03 23:54 | 47.44385 | 8.92640 | 4996 ft | 160 kts | 257° |
| 2026-05-03 23:54 | 47.44130 | 8.91088 | 5003 ft | 146 kts | 261° |
| 2026-05-03 23:55 | 47.44050 | 8.89731 | 5004 ft | 120 kts | 267° |
| 2026-05-03 23:55 | 47.44022 | 8.88573 | 4981 ft | 108 kts | 267° |
| 2026-05-03 23:55 | 47.44004 | 8.87494 | 4977 ft | 103 kts | 268° |
| 2026-05-03 23:55 | 47.43991 | 8.86434 | 4997 ft | 104 kts | 269° |
| 2026-05-03 23:56 | 47.43989 | 8.85369 | 5001 ft | 104 kts | 269° |
| 2026-05-03 23:56 | 47.43990 | 8.84301 | 5011 ft | 104 kts | 270° |
| 2026-05-03 23:56 | 47.43993 | 8.83227 | 5020 ft | 105 kts | 270° |
| 2026-05-03 23:56 | 47.44003 | 8.82139 | 5041 ft | 107 kts | 271° |
| 2026-05-03 23:57 | 47.44020 | 8.81017 | 4925 ft | 113 kts | 271° |
| 2026-05-03 23:57 | 47.44042 | 8.79841 | 4783 ft | 117 kts | 272° |
| 2026-05-03 23:57 | 47.44095 | 8.78632 | 4605 ft | 118 kts | 275° |
| 2026-05-03 23:57 | 47.44191 | 8.77415 | 4441 ft | 119 kts | 277° |
| 2026-05-03 23:58 | 47.44298 | 8.76212 | 4274 ft | 117 kts | 277° |
| 2026-05-03 23:58 | 47.44416 | 8.75045 | 4161 ft | 116 kts | 273° |
| 2026-05-03 23:58 | 47.44470 | 8.73852 | 3969 ft | 120 kts | 272° |
| 2026-05-03 23:58 | 47.44530 | 8.72613 | 3799 ft | 121 kts | 274° |
| 2026-05-03 23:59 | 47.44618 | 8.71371 | 3627 ft | 123 kts | 275° |
| 2026-05-03 23:59 | 47.44725 | 8.70079 | 3443 ft | 129 kts | 276° |
| 2026-05-03 23:59 | 47.44832 | 8.68779 | 3187 ft | 124 kts | 275° |
| 2026-05-03 23:59 | 47.44920 | 8.67571 | 2974 ft | 116 kts | 275° |
| 2026-05-04 00:00 | 47.44996 | 8.66370 | 2794 ft | 123 kts | 275° |
| 2026-05-04 00:00 | 47.45080 | 8.65171 | 2593 ft | 107 kts | 276° |
| 2026-05-04 00:00 | 47.45164 | 8.64113 | 2465 ft | 102 kts | 275° |
| 2026-05-04 00:00 | 47.45230 | 8.63070 | 2317 ft | 98 kts | 275° |
| 2026-05-04 00:01 | 47.45286 | 8.62168 | 2140 ft | 87 kts | 277° |
| 2026-05-04 00:01 | 47.45369 | 8.61182 | 2040 ft | 100 kts | 277° |
| 2026-05-04 00:01 | 47.45440 | 8.60167 | 1924 ft | 100 kts | 276° |
| 2026-05-04 00:01 | 47.45507 | 8.59146 | 1780 ft | 100 kts | 276° |
| 2026-05-04 00:02 | 47.45595 | 8.58134 | 1615 ft | 98 kts | 276° |
| 2026-05-04 00:02 | 47.45668 | 8.57133 | 1475 ft | 95 kts | 274° |
| 2026-05-04 00:02 | 47.45714 | 8.56255 | 1392 ft | 72 kts | 275° |
| 2026-05-04 00:02 | 47.45759 | 8.55626 | 1390 ft | 52 kts | 276° |
| 2026-05-04 00:03 | 47.45774 | 8.55334 | 1386 ft | 9 kts | 247° |
| 2026-05-04 00:03 | 47.45712 | 8.55299 | 1390 ft | 10 kts | 160° |
| 2026-05-04 00:03 | 47.45670 | 8.55436 | 1391 ft | 19 kts | 98° |
| 2026-05-04 00:03 | 47.45653 | 8.55669 | 1391 ft | 21 kts | 94° |
| 2026-05-04 00:04 | 47.45635 | 8.55827 | 1393 ft | 17 kts | 129° |
| 2026-05-04 00:04 | 47.45539 | 8.55841 | 1391 ft | 5 kts | 201° |
| 2026-05-04 00:04 | 47.45499 | 8.55913 | 1389 ft | 17 kts | 101° |
| 2026-05-04 00:04 | 47.45485 | 8.56068 | 1391 ft | 14 kts | 97° |
| 2026-05-04 00:05 | 47.45481 | 8.56207 | 1391 ft | 10 kts | 72° |
| 2026-05-04 00:05 | 47.45522 | 8.56309 | 1391 ft | 7 kts | 94° |
| 2026-05-04 00:05 | 47.45512 | 8.56334 | 1391 ft | 0 kts | 136° |
| 2026-05-04 00:05 | 47.45081 | 8.65154 | 2591 ft | 104 kts | 276° |
| 2026-05-04 00:06 | 47.45163 | 8.64134 | 2467 ft | 102 kts | 275° |
| 2026-05-04 00:06 | 47.45223 | 8.63194 | 2337 ft | 100 kts | 276° |
| 2026-05-04 00:06 | 47.45275 | 8.62329 | 2167 ft | 84 kts | 277° |
| 2026-05-04 00:06 | 47.45345 | 8.61458 | 2067 ft | 100 kts | 277° |
| 2026-05-04 00:07 | 47.45417 | 8.60525 | 1971 ft | 100 kts | 276° |
| 2026-05-04 00:07 | 47.45478 | 8.59587 | 1858 ft | 100 kts | 277° |
| 2026-05-04 00:07 | 47.45552 | 8.58632 | 1688 ft | 99 kts | 277° |
| 2026-05-04 00:07 | 47.45632 | 8.57649 | 1553 ft | 98 kts | 276° |
| 2026-05-04 00:08 | 47.45686 | 8.56693 | 1415 ft | 88 kts | 274° |
| 2026-05-04 00:08 | 47.45733 | 8.55970 | 1394 ft | 62 kts | 276° |
| 2026-05-04 00:08 | 47.44904 | 8.67815 | 3017 ft | 116 kts | 275° |
| 2026-05-04 00:08 | 47.44977 | 8.66672 | 2834 ft | 119 kts | 275° |
| 2026-05-04 00:09 | 47.45057 | 8.65456 | 2641 ft | 111 kts | 275° |
| 2026-05-04 00:09 | 47.45137 | 8.64469 | 2506 ft | 103 kts | 275° |
| 2026-05-04 00:09 | 47.45206 | 8.63481 | 2382 ft | 103 kts | 275° |
| 2026-05-04 00:09 | 47.45262 | 8.62563 | 2215 ft | 85 kts | 275° |
| 2026-05-04 00:10 | 47.45323 | 8.61721 | 2091 ft | 98 kts | 278° |
| 2026-05-04 00:10 | 47.45397 | 8.60796 | 2007 ft | 101 kts | 276° |
| 2026-05-04 00:10 | 47.45462 | 8.59824 | 1879 ft | 100 kts | 276° |
| 2026-05-04 00:10 | 47.45533 | 8.58855 | 1728 ft | 99 kts | 277° |
| 2026-05-04 00:11 | 47.45613 | 8.57906 | 1583 ft | 99 kts | 276° |